sensor_id;sensor_type;location;lat;lon;timestamp;P1;durP1;ratioP1;P2;durP2;ratioP2
14554;SDS011;7364;50.870;4.722;2023-02-01T00:00:29;31.87;;;11.00;;
14554;SDS011;7364;50.870;4.722;2023-02-01T00:03:01;17.97;;;9.73;;
14554;SDS011;7364;50.870;4.722;2023-02-01T00:05:30;20.60;;;10.47;;
14554;SDS011;7364;50.870;4.722;2023-02-01T00:07:57;14.30;;;8.83;;
14554;SDS011;7364;50.870;4.722;2023-02-01T00:10:25;16.00;;;8.73;;
14554;SDS011;7364;50.870;4.722;2023-02-01T00:12:52;17.30;;;8.93;;
14554;SDS011;7364;50.870;4.722;2023-02-01T00:15:19;15.40;;;8.23;;
14554;SDS011;7364;50.870;4.722;2023-02-01T00:17:46;20.43;;;7.87;;
14554;SDS011;7364;50.870;4.722;2023-02-01T00:20:15;13.67;;;7.43;;
14554;SDS011;7364;50.870;4.722;2023-02-01T00:22:42;17.07;;;7.90;;
14554;SDS011;7364;50.870;4.722;2023-02-01T00:25:09;20.77;;;7.00;;
14554;SDS011;7364;50.870;4.722;2023-02-01T00:27:36;22.43;;;7.83;;
14554;SDS011;7364;50.870;4.722;2023-02-01T00:30:04;18.63;;;7.17;;
14554;SDS011;7364;50.870;4.722;2023-02-01T00:32:32;14.90;;;7.17;;
14554;SDS011;7364;50.870;4.722;2023-02-01T00:35:00;23.73;;;6.70;;
14554;SDS011;7364;50.870;4.722;2023-02-01T00:37:28;16.10;;;6.93;;
14554;SDS011;7364;50.870;4.722;2023-02-01T00:39:56;16.40;;;7.17;;
14554;SDS011;7364;50.870;4.722;2023-02-01T00:42:24;15.40;;;6.70;;
14554;SDS011;7364;50.870;4.722;2023-02-01T00:44:58;20.13;;;6.37;;
14554;SDS011;7364;50.870;4.722;2023-02-01T00:47:35;18.83;;;7.37;;
14554;SDS011;7364;50.870;4.722;2023-02-01T00:50:03;16.27;;;7.47;;
14554;SDS011;7364;50.870;4.722;2023-02-01T00:52:39;15.53;;;8.03;;
14554;SDS011;7364;50.870;4.722;2023-02-01T00:55:33;14.63;;;7.67;;
14554;SDS011;7364;50.870;4.722;2023-02-01T00:58:07;16.60;;;8.17;;
14554;SDS011;7364;50.870;4.722;2023-02-01T01:00:38;13.30;;;6.90;;
14554;SDS011;7364;50.870;4.722;2023-02-01T01:03:07;16.97;;;8.40;;
14554;SDS011;7364;50.870;4.722;2023-02-01T01:05:56;14.33;;;7.60;;
14554;SDS011;7364;50.870;4.722;2023-02-01T01:08:36;20.17;;;8.20;;
14554;SDS011;7364;50.870;4.722;2023-02-01T01:11:13;22.77;;;9.17;;
14554;SDS011;7364;50.870;4.722;2023-02-01T01:13:47;13.70;;;7.77;;
14554;SDS011;7364;50.870;4.722;2023-02-01T01:16:22;21.47;;;8.50;;
14554;SDS011;7364;50.870;4.722;2023-02-01T01:19:01;14.30;;;8.27;;
14554;SDS011;7364;50.870;4.722;2023-02-01T01:21:39;14.27;;;8.03;;
14554;SDS011;7364;50.870;4.722;2023-02-01T01:24:12;29.20;;;8.67;;
14554;SDS011;7364;50.870;4.722;2023-02-01T01:26:43;16.17;;;7.07;;
14554;SDS011;7364;50.870;4.722;2023-02-01T01:29:15;15.20;;;7.50;;
14554;SDS011;7364;50.870;4.722;2023-02-01T01:31:51;16.60;;;7.30;;
14554;SDS011;7364;50.870;4.722;2023-02-01T01:34:27;12.83;;;6.67;;
14554;SDS011;7364;50.870;4.722;2023-02-01T01:36:59;15.40;;;7.20;;
14554;SDS011;7364;50.870;4.722;2023-02-01T01:39:28;13.83;;;6.63;;
14554;SDS011;7364;50.870;4.722;2023-02-01T01:41:56;17.40;;;6.67;;
14554;SDS011;7364;50.870;4.722;2023-02-01T01:47:23;11.83;;;6.87;;
14554;SDS011;7364;50.870;4.722;2023-02-01T01:49:52;12.80;;;6.90;;
14554;SDS011;7364;50.870;4.722;2023-02-01T01:52:19;11.43;;;6.67;;
14554;SDS011;7364;50.870;4.722;2023-02-01T01:54:50;15.60;;;6.57;;
14554;SDS011;7364;50.870;4.722;2023-02-01T01:57:19;12.33;;;6.20;;
14554;SDS011;7364;50.870;4.722;2023-02-01T01:59:52;15.93;;;6.07;;
14554;SDS011;7364;50.870;4.722;2023-02-01T02:02:24;13.00;;;5.73;;
14554;SDS011;7364;50.870;4.722;2023-02-01T02:04:51;19.30;;;6.50;;
14554;SDS011;7364;50.870;4.722;2023-02-01T02:07:19;20.57;;;6.47;;
14554;SDS011;7364;50.870;4.722;2023-02-01T02:09:51;19.67;;;6.00;;
14554;SDS011;7364;50.870;4.722;2023-02-01T02:12:18;11.63;;;5.13;;
14554;SDS011;7364;50.870;4.722;2023-02-01T02:14:46;11.83;;;5.20;;
14554;SDS011;7364;50.870;4.722;2023-02-01T02:17:18;15.03;;;5.27;;
14554;SDS011;7364;50.870;4.722;2023-02-01T02:26:16;15.30;;;4.77;;
14554;SDS011;7364;50.870;4.722;2023-02-01T02:28:59;12.87;;;5.33;;
14554;SDS011;7364;50.870;4.722;2023-02-01T02:32:04;11.73;;;5.03;;
14554;SDS011;7364;50.870;4.722;2023-02-01T02:35:01;10.23;;;3.73;;
14554;SDS011;7364;50.870;4.722;2023-02-01T02:37:37;18.23;;;5.63;;
14554;SDS011;7364;50.870;4.722;2023-02-01T02:40:12;15.43;;;4.93;;
14554;SDS011;7364;50.870;4.722;2023-02-01T02:42:43;22.87;;;5.37;;
14554;SDS011;7364;50.870;4.722;2023-02-01T02:45:41;13.00;;;4.47;;
14554;SDS011;7364;50.870;4.722;2023-02-01T02:48:37;14.80;;;4.57;;
14554;SDS011;7364;50.870;4.722;2023-02-01T02:51:11;10.17;;;3.93;;
14554;SDS011;7364;50.870;4.722;2023-02-01T02:54:02;20.97;;;4.90;;
14554;SDS011;7364;50.870;4.722;2023-02-01T02:56:51;19.27;;;4.77;;
14554;SDS011;7364;50.870;4.722;2023-02-01T02:59:37;9.17;;;4.20;;
14554;SDS011;7364;50.870;4.722;2023-02-01T03:02:25;10.27;;;4.33;;
14554;SDS011;7364;50.870;4.722;2023-02-01T03:05:11;14.43;;;3.87;;
14554;SDS011;7364;50.870;4.722;2023-02-01T03:10:32;7.83;;;3.30;;
14554;SDS011;7364;50.870;4.722;2023-02-01T03:13:06;6.97;;;3.27;;
14554;SDS011;7364;50.870;4.722;2023-02-01T03:15:38;16.57;;;4.37;;
14554;SDS011;7364;50.870;4.722;2023-02-01T03:18:10;13.87;;;4.00;;
14554;SDS011;7364;50.870;4.722;2023-02-01T03:20:42;15.40;;;4.50;;
14554;SDS011;7364;50.870;4.722;2023-02-01T03:23:15;8.57;;;3.63;;
14554;SDS011;7364;50.870;4.722;2023-02-01T03:25:44;7.97;;;2.60;;
14554;SDS011;7364;50.870;4.722;2023-02-01T03:28:15;16.60;;;4.27;;
14554;SDS011;7364;50.870;4.722;2023-02-01T03:30:46;19.80;;;4.20;;
14554;SDS011;7364;50.870;4.722;2023-02-01T03:33:16;13.93;;;4.17;;
14554;SDS011;7364;50.870;4.722;2023-02-01T03:35:57;10.80;;;4.00;;
14554;SDS011;7364;50.870;4.722;2023-02-01T03:38:36;15.63;;;4.40;;
14554;SDS011;7364;50.870;4.722;2023-02-01T03:41:09;15.83;;;4.37;;
14554;SDS011;7364;50.870;4.722;2023-02-01T03:43:43;12.13;;;4.13;;
14554;SDS011;7364;50.870;4.722;2023-02-01T03:46:19;11.57;;;4.03;;
14554;SDS011;7364;50.870;4.722;2023-02-01T03:48:52;18.47;;;5.03;;
14554;SDS011;7364;50.870;4.722;2023-02-01T03:51:21;12.10;;;4.10;;
14554;SDS011;7364;50.870;4.722;2023-02-01T03:53:52;11.00;;;3.57;;
14554;SDS011;7364;50.870;4.722;2023-02-01T03:56:21;15.27;;;4.43;;
14554;SDS011;7364;50.870;4.722;2023-02-01T03:58:51;17.37;;;4.60;;
14554;SDS011;7364;50.870;4.722;2023-02-01T04:01:28;12.40;;;4.00;;
14554;SDS011;7364;50.870;4.722;2023-02-01T04:03:57;14.80;;;5.20;;
14554;SDS011;7364;50.870;4.722;2023-02-01T04:06:25;13.73;;;3.97;;
14554;SDS011;7364;50.870;4.722;2023-02-01T04:08:54;14.13;;;4.77;;
14554;SDS011;7364;50.870;4.722;2023-02-01T04:11:21;15.87;;;5.17;;
14554;SDS011;7364;50.870;4.722;2023-02-01T04:13:48;10.07;;;3.47;;
14554;SDS011;7364;50.870;4.722;2023-02-01T04:16:16;16.90;;;4.53;;
14554;SDS011;7364;50.870;4.722;2023-02-01T04:18:43;13.77;;;3.87;;
14554;SDS011;7364;50.870;4.722;2023-02-01T04:21:10;10.50;;;4.20;;
14554;SDS011;7364;50.870;4.722;2023-02-01T04:23:40;14.00;;;4.73;;
14554;SDS011;7364;50.870;4.722;2023-02-01T04:26:08;8.43;;;2.90;;
14554;SDS011;7364;50.870;4.722;2023-02-01T04:28:37;25.13;;;4.30;;
14554;SDS011;7364;50.870;4.722;2023-02-01T04:31:04;16.17;;;4.03;;
14554;SDS011;7364;50.870;4.722;2023-02-01T04:33:31;10.20;;;2.93;;
14554;SDS011;7364;50.870;4.722;2023-02-01T04:35:58;19.33;;;4.57;;
14554;SDS011;7364;50.870;4.722;2023-02-01T04:38:26;14.53;;;4.10;;
14554;SDS011;7364;50.870;4.722;2023-02-01T04:40:54;20.87;;;4.60;;
14554;SDS011;7364;50.870;4.722;2023-02-01T04:43:23;15.63;;;4.63;;
14554;SDS011;7364;50.870;4.722;2023-02-01T04:45:51;17.10;;;4.40;;
14554;SDS011;7364;50.870;4.722;2023-02-01T04:48:19;9.20;;;4.23;;
14554;SDS011;7364;50.870;4.722;2023-02-01T04:50:48;16.83;;;4.20;;
14554;SDS011;7364;50.870;4.722;2023-02-01T04:53:15;10.33;;;3.50;;
14554;SDS011;7364;50.870;4.722;2023-02-01T04:55:43;16.57;;;4.63;;
14554;SDS011;7364;50.870;4.722;2023-02-01T04:58:11;11.17;;;4.53;;
14554;SDS011;7364;50.870;4.722;2023-02-01T05:00:39;10.07;;;3.57;;
14554;SDS011;7364;50.870;4.722;2023-02-01T05:03:07;12.30;;;3.97;;
14554;SDS011;7364;50.870;4.722;2023-02-01T05:05:34;13.90;;;4.37;;
14554;SDS011;7364;50.870;4.722;2023-02-01T05:08:01;17.70;;;4.77;;
14554;SDS011;7364;50.870;4.722;2023-02-01T05:10:29;20.50;;;4.53;;
14554;SDS011;7364;50.870;4.722;2023-02-01T05:12:56;16.30;;;4.53;;
14554;SDS011;7364;50.870;4.722;2023-02-01T05:15:42;14.57;;;4.13;;
14554;SDS011;7364;50.870;4.722;2023-02-01T05:18:11;11.67;;;4.00;;
14554;SDS011;7364;50.870;4.722;2023-02-01T05:20:38;19.07;;;3.93;;
14554;SDS011;7364;50.870;4.722;2023-02-01T05:23:06;13.23;;;4.63;;
14554;SDS011;7364;50.870;4.722;2023-02-01T05:25:33;13.03;;;3.67;;
14554;SDS011;7364;50.870;4.722;2023-02-01T05:28:00;11.43;;;4.07;;
14554;SDS011;7364;50.870;4.722;2023-02-01T05:30:27;12.80;;;4.10;;
14554;SDS011;7364;50.870;4.722;2023-02-01T05:32:56;16.73;;;5.33;;
14554;SDS011;7364;50.870;4.722;2023-02-01T05:35:23;18.63;;;4.93;;
14554;SDS011;7364;50.870;4.722;2023-02-01T05:37:50;18.83;;;4.40;;
14554;SDS011;7364;50.870;4.722;2023-02-01T05:40:18;10.40;;;3.70;;
14554;SDS011;7364;50.870;4.722;2023-02-01T05:42:45;15.17;;;5.03;;
14554;SDS011;7364;50.870;4.722;2023-02-01T05:45:12;15.57;;;4.13;;
14554;SDS011;7364;50.870;4.722;2023-02-01T05:47:40;12.30;;;4.03;;
14554;SDS011;7364;50.870;4.722;2023-02-01T05:50:09;17.20;;;4.53;;
14554;SDS011;7364;50.870;4.722;2023-02-01T05:52:36;10.57;;;4.00;;
14554;SDS011;7364;50.870;4.722;2023-02-01T05:55:03;14.13;;;4.33;;
14554;SDS011;7364;50.870;4.722;2023-02-01T05:57:31;22.07;;;4.03;;
14554;SDS011;7364;50.870;4.722;2023-02-01T05:59:58;15.27;;;4.63;;
14554;SDS011;7364;50.870;4.722;2023-02-01T06:02:26;14.70;;;4.80;;
14554;SDS011;7364;50.870;4.722;2023-02-01T06:04:53;19.43;;;4.37;;
14554;SDS011;7364;50.870;4.722;2023-02-01T06:07:21;10.67;;;4.40;;
14554;SDS011;7364;50.870;4.722;2023-02-01T06:09:49;13.43;;;4.50;;
14554;SDS011;7364;50.870;4.722;2023-02-01T06:12:16;11.47;;;3.37;;
14554;SDS011;7364;50.870;4.722;2023-02-01T06:14:46;11.53;;;3.77;;
14554;SDS011;7364;50.870;4.722;2023-02-01T06:17:13;10.07;;;4.27;;
14554;SDS011;7364;50.870;4.722;2023-02-01T06:19:41;10.03;;;3.80;;
14554;SDS011;7364;50.870;4.722;2023-02-01T06:22:09;22.10;;;4.73;;
14554;SDS011;7364;50.870;4.722;2023-02-01T06:24:38;10.97;;;4.13;;
14554;SDS011;7364;50.870;4.722;2023-02-01T06:27:06;11.03;;;3.50;;
14554;SDS011;7364;50.870;4.722;2023-02-01T06:29:34;15.60;;;3.90;;
14554;SDS011;7364;50.870;4.722;2023-02-01T06:32:02;13.73;;;4.33;;
14554;SDS011;7364;50.870;4.722;2023-02-01T06:34:29;13.23;;;4.00;;
14554;SDS011;7364;50.870;4.722;2023-02-01T06:36:56;12.43;;;4.37;;
14554;SDS011;7364;50.870;4.722;2023-02-01T06:39:24;19.33;;;3.97;;
14554;SDS011;7364;50.870;4.722;2023-02-01T06:41:54;12.93;;;4.17;;
14554;SDS011;7364;50.870;4.722;2023-02-01T06:44:21;11.50;;;4.23;;
14554;SDS011;7364;50.870;4.722;2023-02-01T06:46:48;11.23;;;3.13;;
14554;SDS011;7364;50.870;4.722;2023-02-01T06:49:15;12.13;;;3.77;;
14554;SDS011;7364;50.870;4.722;2023-02-01T06:51:43;14.00;;;4.27;;
14554;SDS011;7364;50.870;4.722;2023-02-01T06:54:10;14.90;;;3.33;;
14554;SDS011;7364;50.870;4.722;2023-02-01T06:56:38;10.33;;;3.93;;
14554;SDS011;7364;50.870;4.722;2023-02-01T06:59:07;12.63;;;4.17;;
14554;SDS011;7364;50.870;4.722;2023-02-01T07:01:34;17.03;;;4.33;;
14554;SDS011;7364;50.870;4.722;2023-02-01T07:04:01;19.20;;;4.93;;
14554;SDS011;7364;50.870;4.722;2023-02-01T07:06:29;11.80;;;4.00;;
14554;SDS011;7364;50.870;4.722;2023-02-01T07:08:57;11.63;;;4.07;;
14554;SDS011;7364;50.870;4.722;2023-02-01T07:11:25;20.10;;;5.13;;
14554;SDS011;7364;50.870;4.722;2023-02-01T07:13:53;10.93;;;4.47;;
14554;SDS011;7364;50.870;4.722;2023-02-01T07:16:23;11.47;;;4.37;;
14554;SDS011;7364;50.870;4.722;2023-02-01T07:18:52;16.37;;;4.80;;
14554;SDS011;7364;50.870;4.722;2023-02-01T07:21:19;8.73;;;4.03;;
14554;SDS011;7364;50.870;4.722;2023-02-01T07:23:47;10.70;;;3.73;;
14554;SDS011;7364;50.870;4.722;2023-02-01T07:26:15;14.43;;;4.17;;
14554;SDS011;7364;50.870;4.722;2023-02-01T07:28:42;16.90;;;4.60;;
14554;SDS011;7364;50.870;4.722;2023-02-01T07:31:11;14.90;;;4.93;;
14554;SDS011;7364;50.870;4.722;2023-02-01T07:33:42;19.40;;;5.13;;
14554;SDS011;7364;50.870;4.722;2023-02-01T07:36:11;15.40;;;4.37;;
14554;SDS011;7364;50.870;4.722;2023-02-01T07:38:40;12.53;;;4.50;;
14554;SDS011;7364;50.870;4.722;2023-02-01T07:41:08;12.57;;;3.67;;
14554;SDS011;7364;50.870;4.722;2023-02-01T07:43:36;23.87;;;4.70;;
14554;SDS011;7364;50.870;4.722;2023-02-01T07:46:04;7.80;;;3.20;;
14554;SDS011;7364;50.870;4.722;2023-02-01T07:48:32;14.13;;;4.60;;
14554;SDS011;7364;50.870;4.722;2023-02-01T07:51:02;15.43;;;4.07;;
14554;SDS011;7364;50.870;4.722;2023-02-01T07:53:31;16.07;;;4.00;;
14554;SDS011;7364;50.870;4.722;2023-02-01T07:56:00;17.70;;;4.13;;
14554;SDS011;7364;50.870;4.722;2023-02-01T07:58:27;13.50;;;3.80;;
14554;SDS011;7364;50.870;4.722;2023-02-01T08:00:55;15.03;;;4.67;;
14554;SDS011;7364;50.870;4.722;2023-02-01T08:03:40;17.90;;;4.57;;
14554;SDS011;7364;50.870;4.722;2023-02-01T08:06:09;10.20;;;4.07;;
14554;SDS011;7364;50.870;4.722;2023-02-01T08:08:37;19.57;;;5.03;;
14554;SDS011;7364;50.870;4.722;2023-02-01T08:11:04;11.33;;;4.37;;
14554;SDS011;7364;50.870;4.722;2023-02-01T08:13:33;11.70;;;3.37;;
14554;SDS011;7364;50.870;4.722;2023-02-01T08:16:02;13.47;;;4.87;;
14554;SDS011;7364;50.870;4.722;2023-02-01T08:18:31;13.10;;;3.90;;
14554;SDS011;7364;50.870;4.722;2023-02-01T08:21:02;10.40;;;3.97;;
14554;SDS011;7364;50.870;4.722;2023-02-01T08:23:32;14.53;;;4.07;;
14554;SDS011;7364;50.870;4.722;2023-02-01T08:26:10;11.97;;;3.63;;
14554;SDS011;7364;50.870;4.722;2023-02-01T08:28:40;15.20;;;4.40;;
14554;SDS011;7364;50.870;4.722;2023-02-01T08:31:09;14.83;;;4.50;;
14554;SDS011;7364;50.870;4.722;2023-02-01T08:33:39;11.27;;;4.20;;
14554;SDS011;7364;50.870;4.722;2023-02-01T08:36:10;22.43;;;5.83;;
14554;SDS011;7364;50.870;4.722;2023-02-01T08:38:39;21.73;;;3.73;;
14554;SDS011;7364;50.870;4.722;2023-02-01T08:41:08;12.83;;;4.03;;
14554;SDS011;7364;50.870;4.722;2023-02-01T08:43:36;9.57;;;3.37;;
14554;SDS011;7364;50.870;4.722;2023-02-01T08:46:04;17.57;;;4.60;;
14554;SDS011;7364;50.870;4.722;2023-02-01T08:48:32;15.80;;;4.83;;
14554;SDS011;7364;50.870;4.722;2023-02-01T08:51:02;18.20;;;4.73;;
14554;SDS011;7364;50.870;4.722;2023-02-01T08:53:30;19.47;;;4.97;;
14554;SDS011;7364;50.870;4.722;2023-02-01T08:55:58;14.70;;;4.80;;
14554;SDS011;7364;50.870;4.722;2023-02-01T08:58:26;16.23;;;4.10;;
14554;SDS011;7364;50.870;4.722;2023-02-01T09:00:53;8.03;;;3.43;;
14554;SDS011;7364;50.870;4.722;2023-02-01T09:03:21;13.87;;;3.97;;
14554;SDS011;7364;50.870;4.722;2023-02-01T09:05:48;14.97;;;4.60;;
14554;SDS011;7364;50.870;4.722;2023-02-01T09:08:16;11.33;;;4.33;;
14554;SDS011;7364;50.870;4.722;2023-02-01T09:10:47;16.50;;;5.20;;
14554;SDS011;7364;50.870;4.722;2023-02-01T09:13:16;14.10;;;4.30;;
14554;SDS011;7364;50.870;4.722;2023-02-01T09:15:44;10.30;;;2.70;;
14554;SDS011;7364;50.870;4.722;2023-02-01T09:18:11;16.23;;;4.77;;
14554;SDS011;7364;50.870;4.722;2023-02-01T09:20:38;14.40;;;3.93;;
14554;SDS011;7364;50.870;4.722;2023-02-01T09:23:06;14.70;;;4.40;;
14554;SDS011;7364;50.870;4.722;2023-02-01T09:25:33;11.50;;;3.90;;
14554;SDS011;7364;50.870;4.722;2023-02-01T09:28:03;13.10;;;4.03;;
14554;SDS011;7364;50.870;4.722;2023-02-01T09:30:32;15.03;;;4.37;;
14554;SDS011;7364;50.870;4.722;2023-02-01T09:33:00;12.63;;;4.00;;
14554;SDS011;7364;50.870;4.722;2023-02-01T09:35:27;13.83;;;4.10;;
14554;SDS011;7364;50.870;4.722;2023-02-01T09:37:54;19.13;;;4.93;;
14554;SDS011;7364;50.870;4.722;2023-02-01T09:40:22;11.97;;;3.53;;
14554;SDS011;7364;50.870;4.722;2023-02-01T09:42:57;7.57;;;3.67;;
14554;SDS011;7364;50.870;4.722;2023-02-01T09:45:40;16.80;;;4.80;;
14554;SDS011;7364;50.870;4.722;2023-02-01T09:48:16;11.43;;;3.83;;
14554;SDS011;7364;50.870;4.722;2023-02-01T09:50:48;20.00;;;4.20;;
14554;SDS011;7364;50.870;4.722;2023-02-01T09:53:21;11.07;;;3.43;;
14554;SDS011;7364;50.870;4.722;2023-02-01T09:55:54;14.73;;;4.07;;
14554;SDS011;7364;50.870;4.722;2023-02-01T09:58:27;17.20;;;5.23;;
14554;SDS011;7364;50.870;4.722;2023-02-01T10:01:02;11.97;;;4.50;;
14554;SDS011;7364;50.870;4.722;2023-02-01T10:03:32;12.03;;;4.43;;
14554;SDS011;7364;50.870;4.722;2023-02-01T10:12:00;14.43;;;3.80;;
14554;SDS011;7364;50.870;4.722;2023-02-01T10:14:46;7.37;;;3.60;;
14554;SDS011;7364;50.870;4.722;2023-02-01T10:17:28;10.83;;;4.00;;
14554;SDS011;7364;50.870;4.722;2023-02-01T10:20:09;16.13;;;4.97;;
14554;SDS011;7364;50.870;4.722;2023-02-01T10:22:44;22.60;;;4.80;;
14554;SDS011;7364;50.870;4.722;2023-02-01T10:25:14;9.87;;;2.60;;
14554;SDS011;7364;50.870;4.722;2023-02-01T10:27:48;6.50;;;4.17;;
14554;SDS011;7364;50.870;4.722;2023-02-01T10:30:18;11.43;;;3.77;;
14554;SDS011;7364;50.870;4.722;2023-02-01T10:32:52;12.13;;;4.07;;
14554;SDS011;7364;50.870;4.722;2023-02-01T10:35:25;11.27;;;3.67;;
14554;SDS011;7364;50.870;4.722;2023-02-01T10:37:58;10.07;;;3.57;;
14554;SDS011;7364;50.870;4.722;2023-02-01T10:40:28;9.03;;;2.63;;
14554;SDS011;7364;50.870;4.722;2023-02-01T10:42:56;11.07;;;3.47;;
14554;SDS011;7364;50.870;4.722;2023-02-01T10:45:27;10.00;;;3.33;;
14554;SDS011;7364;50.870;4.722;2023-02-01T10:48:04;14.03;;;4.47;;
14554;SDS011;7364;50.870;4.722;2023-02-01T10:50:35;15.30;;;4.50;;
14554;SDS011;7364;50.870;4.722;2023-02-01T10:53:06;11.87;;;4.00;;
14554;SDS011;7364;50.870;4.722;2023-02-01T10:55:46;12.37;;;3.60;;
14554;SDS011;7364;50.870;4.722;2023-02-01T10:58:16;11.20;;;3.80;;
14554;SDS011;7364;50.870;4.722;2023-02-01T11:00:46;10.13;;;2.23;;
14554;SDS011;7364;50.870;4.722;2023-02-01T11:03:30;10.53;;;3.80;;
14554;SDS011;7364;50.870;4.722;2023-02-01T11:06:16;9.37;;;3.47;;
14554;SDS011;7364;50.870;4.722;2023-02-01T11:08:48;9.63;;;2.83;;
14554;SDS011;7364;50.870;4.722;2023-02-01T11:11:18;13.80;;;4.10;;
14554;SDS011;7364;50.870;4.722;2023-02-01T11:13:51;9.57;;;3.13;;
14554;SDS011;7364;50.870;4.722;2023-02-01T11:16:20;6.47;;;2.93;;
14554;SDS011;7364;50.870;4.722;2023-02-01T11:18:52;8.13;;;3.17;;
14554;SDS011;7364;50.870;4.722;2023-02-01T11:21:21;9.50;;;3.30;;
14554;SDS011;7364;50.870;4.722;2023-02-01T11:23:51;11.37;;;3.07;;
14554;SDS011;7364;50.870;4.722;2023-02-01T11:26:24;13.33;;;3.37;;
14554;SDS011;7364;50.870;4.722;2023-02-01T11:28:54;12.47;;;3.37;;
14554;SDS011;7364;50.870;4.722;2023-02-01T11:31:25;8.67;;;2.53;;
14554;SDS011;7364;50.870;4.722;2023-02-01T11:33:57;9.13;;;2.93;;
14554;SDS011;7364;50.870;4.722;2023-02-01T11:36:27;8.67;;;2.47;;
14554;SDS011;7364;50.870;4.722;2023-02-01T11:39:07;12.50;;;2.97;;
14554;SDS011;7364;50.870;4.722;2023-02-01T11:41:44;5.43;;;2.10;;
14554;SDS011;7364;50.870;4.722;2023-02-01T11:44:26;9.63;;;1.93;;
14554;SDS011;7364;50.870;4.722;2023-02-01T11:47:20;9.93;;;2.40;;
14554;SDS011;7364;50.870;4.722;2023-02-01T11:49:55;11.10;;;3.47;;
14554;SDS011;7364;50.870;4.722;2023-02-01T11:52:35;11.23;;;2.37;;
14554;SDS011;7364;50.870;4.722;2023-02-01T11:55:21;10.33;;;3.27;;
14554;SDS011;7364;50.870;4.722;2023-02-01T11:58:06;4.67;;;1.97;;
14554;SDS011;7364;50.870;4.722;2023-02-01T12:00:58;11.10;;;3.83;;
14554;SDS011;7364;50.870;4.722;2023-02-01T12:03:47;12.03;;;2.93;;
14554;SDS011;7364;50.870;4.722;2023-02-01T12:06:48;13.07;;;2.67;;
14554;SDS011;7364;50.870;4.722;2023-02-01T12:09:23;9.40;;;2.90;;
14554;SDS011;7364;50.870;4.722;2023-02-01T12:12:04;10.20;;;2.77;;
14554;SDS011;7364;50.870;4.722;2023-02-01T12:14:47;10.27;;;2.90;;
14554;SDS011;7364;50.870;4.722;2023-02-01T12:17:37;11.67;;;2.50;;
14554;SDS011;7364;50.870;4.722;2023-02-01T12:20:34;8.10;;;2.20;;
14554;SDS011;7364;50.870;4.722;2023-02-01T12:23:28;5.77;;;1.80;;
14554;SDS011;7364;50.870;4.722;2023-02-01T12:26:12;4.20;;;1.60;;
14554;SDS011;7364;50.870;4.722;2023-02-01T12:29:05;7.23;;;1.73;;
14554;SDS011;7364;50.870;4.722;2023-02-01T12:31:54;7.90;;;1.93;;
14554;SDS011;7364;50.870;4.722;2023-02-01T12:34:50;10.30;;;2.00;;
14554;SDS011;7364;50.870;4.722;2023-02-01T12:37:42;7.03;;;1.77;;
14554;SDS011;7364;50.870;4.722;2023-02-01T12:40:25;12.83;;;2.43;;
14554;SDS011;7364;50.870;4.722;2023-02-01T12:43:12;7.03;;;2.07;;
14554;SDS011;7364;50.870;4.722;2023-02-01T12:45:48;7.33;;;2.13;;
14554;SDS011;7364;50.870;4.722;2023-02-01T12:48:22;8.33;;;2.20;;
14554;SDS011;7364;50.870;4.722;2023-02-01T12:50:59;4.17;;;2.20;;
14554;SDS011;7364;50.870;4.722;2023-02-01T12:53:33;4.33;;;2.03;;
14554;SDS011;7364;50.870;4.722;2023-02-01T12:56:14;14.13;;;2.67;;
14554;SDS011;7364;50.870;4.722;2023-02-01T12:58:48;7.00;;;1.63;;
14554;SDS011;7364;50.870;4.722;2023-02-01T13:01:20;7.53;;;1.73;;
14554;SDS011;7364;50.870;4.722;2023-02-01T13:03:55;9.20;;;2.23;;
14554;SDS011;7364;50.870;4.722;2023-02-01T13:06:27;8.17;;;2.13;;
14554;SDS011;7364;50.870;4.722;2023-02-01T13:09:00;21.53;;;2.50;;
14554;SDS011;7364;50.870;4.722;2023-02-01T13:11:37;5.83;;;1.77;;
14554;SDS011;7364;50.870;4.722;2023-02-01T13:14:11;8.47;;;2.63;;
14554;SDS011;7364;50.870;4.722;2023-02-01T13:16:49;6.00;;;1.80;;
14554;SDS011;7364;50.870;4.722;2023-02-01T13:19:21;5.43;;;2.10;;
14554;SDS011;7364;50.870;4.722;2023-02-01T13:21:57;4.57;;;1.67;;
14554;SDS011;7364;50.870;4.722;2023-02-01T13:24:33;16.40;;;2.87;;
14554;SDS011;7364;50.870;4.722;2023-02-01T13:27:12;9.60;;;1.90;;
14554;SDS011;7364;50.870;4.722;2023-02-01T13:29:44;9.13;;;2.17;;
14554;SDS011;7364;50.870;4.722;2023-02-01T13:32:35;10.73;;;1.80;;
14554;SDS011;7364;50.870;4.722;2023-02-01T13:41:25;5.77;;;2.03;;
14554;SDS011;7364;50.870;4.722;2023-02-01T13:44:00;7.03;;;1.97;;
14554;SDS011;7364;50.870;4.722;2023-02-01T13:46:30;9.80;;;1.87;;
14554;SDS011;7364;50.870;4.722;2023-02-01T13:49:13;6.33;;;2.20;;
14554;SDS011;7364;50.870;4.722;2023-02-01T13:51:48;7.13;;;1.57;;
14554;SDS011;7364;50.870;4.722;2023-02-01T13:54:26;7.80;;;1.77;;
14554;SDS011;7364;50.870;4.722;2023-02-01T13:56:58;6.60;;;1.93;;
14554;SDS011;7364;50.870;4.722;2023-02-01T13:59:49;10.27;;;1.90;;
14554;SDS011;7364;50.870;4.722;2023-02-01T14:08:35;6.57;;;2.07;;
14554;SDS011;7364;50.870;4.722;2023-02-01T14:11:07;6.70;;;2.13;;
14554;SDS011;7364;50.870;4.722;2023-02-01T14:23:23;6.03;;;2.20;;
14554;SDS011;7364;50.870;4.722;2023-02-01T14:26:05;4.57;;;1.97;;
14554;SDS011;7364;50.870;4.722;2023-02-01T14:28:46;12.37;;;2.93;;
14554;SDS011;7364;50.870;4.722;2023-02-01T14:34:24;8.53;;;2.70;;
14554;SDS011;7364;50.870;4.722;2023-02-01T14:37:01;9.70;;;2.00;;
14554;SDS011;7364;50.870;4.722;2023-02-01T14:39:32;10.87;;;3.20;;
14554;SDS011;7364;50.870;4.722;2023-02-01T14:42:05;9.63;;;2.50;;
14554;SDS011;7364;50.870;4.722;2023-02-01T14:44:43;8.60;;;1.70;;
14554;SDS011;7364;50.870;4.722;2023-02-01T14:50:02;11.83;;;2.80;;
14554;SDS011;7364;50.870;4.722;2023-02-01T14:52:39;10.77;;;3.07;;
14554;SDS011;7364;50.870;4.722;2023-02-01T14:55:13;6.57;;;2.47;;
14554;SDS011;7364;50.870;4.722;2023-02-01T14:57:45;8.57;;;2.27;;
14554;SDS011;7364;50.870;4.722;2023-02-01T15:00:20;8.53;;;2.27;;
14554;SDS011;7364;50.870;4.722;2023-02-01T15:02:50;5.03;;;2.03;;
14554;SDS011;7364;50.870;4.722;2023-02-01T15:08:04;11.10;;;2.43;;
14554;SDS011;7364;50.870;4.722;2023-02-01T15:10:44;4.87;;;2.20;;
14554;SDS011;7364;50.870;4.722;2023-02-01T15:13:20;5.63;;;2.17;;
14554;SDS011;7364;50.870;4.722;2023-02-01T15:16:05;7.03;;;2.80;;
14554;SDS011;7364;50.870;4.722;2023-02-01T15:18:37;6.23;;;2.67;;
14554;SDS011;7364;50.870;4.722;2023-02-01T15:21:13;12.37;;;3.10;;
14554;SDS011;7364;50.870;4.722;2023-02-01T15:23:43;12.47;;;3.20;;
14554;SDS011;7364;50.870;4.722;2023-02-01T15:28:56;10.87;;;3.70;;
14554;SDS011;7364;50.870;4.722;2023-02-01T15:31:31;10.47;;;2.97;;
14554;SDS011;7364;50.870;4.722;2023-02-01T15:34:00;11.07;;;2.77;;
14554;SDS011;7364;50.870;4.722;2023-02-01T15:36:29;9.47;;;2.97;;
14554;SDS011;7364;50.870;4.722;2023-02-01T15:39:14;15.30;;;3.53;;
14554;SDS011;7364;50.870;4.722;2023-02-01T15:41:49;6.87;;;2.37;;
14554;SDS011;7364;50.870;4.722;2023-02-01T15:47:06;12.73;;;3.47;;
14554;SDS011;7364;50.870;4.722;2023-02-01T15:49:39;7.17;;;2.70;;
14554;SDS011;7364;50.870;4.722;2023-02-01T15:52:14;9.00;;;3.20;;
14554;SDS011;7364;50.870;4.722;2023-02-01T15:54:49;6.70;;;2.57;;
14554;SDS011;7364;50.870;4.722;2023-02-01T15:57:21;7.13;;;3.53;;
14554;SDS011;7364;50.870;4.722;2023-02-01T15:59:56;8.47;;;2.20;;
14554;SDS011;7364;50.870;4.722;2023-02-01T16:02:26;11.03;;;3.30;;
14554;SDS011;7364;50.870;4.722;2023-02-01T16:04:57;11.63;;;2.50;;
14554;SDS011;7364;50.870;4.722;2023-02-01T16:07:26;9.43;;;2.53;;
14554;SDS011;7364;50.870;4.722;2023-02-01T16:09:55;13.93;;;3.40;;
14554;SDS011;7364;50.870;4.722;2023-02-01T16:12:29;7.33;;;3.63;;
14554;SDS011;7364;50.870;4.722;2023-02-01T16:14:59;15.03;;;3.60;;
14554;SDS011;7364;50.870;4.722;2023-02-01T16:17:27;12.43;;;3.40;;